createdAt,value
2019-05-29T00:01:00.038Z,1001.53
2019-05-29T00:02:00.025Z,1001.52
2019-05-29T00:03:00.047Z,1001.53
2019-05-29T00:04:00.063Z,1001.53
2019-05-29T00:05:00.085Z,1001.52
2019-05-29T00:06:00.098Z,1001.53
2019-05-29T00:07:00.112Z,1001.55
2019-05-29T00:08:00.136Z,1001.57
2019-05-29T00:09:00.144Z,1001.55
2019-05-29T00:10:00.159Z,1001.58
2019-05-29T00:11:00.175Z,1001.61
2019-05-29T00:12:00.196Z,1001.62
2019-05-29T00:13:00.213Z,1001.64
2019-05-29T00:14:00.231Z,1001.69
2019-05-29T00:15:00.245Z,1001.68
2019-05-29T00:16:00.260Z,1001.70
2019-05-29T00:17:00.279Z,1001.68
2019-05-29T00:18:00.295Z,1001.76
2019-05-29T00:19:00.312Z,1001.79
2019-05-29T00:20:00.328Z,1001.76
2019-05-29T00:21:00.348Z,1001.79
2019-05-29T00:22:00.368Z,1001.75
2019-05-29T00:23:00.403Z,1001.78
2019-05-29T00:24:00.397Z,1001.84
2019-05-29T00:25:00.535Z,1001.85
2019-05-29T00:26:00.430Z,1001.87
2019-05-29T00:27:00.447Z,1001.93
2019-05-29T00:28:00.462Z,1001.91
2019-05-29T00:29:00.480Z,1001.92
2019-05-29T00:30:00.495Z,1001.90
2019-05-29T00:31:00.522Z,1001.91
2019-05-29T00:32:00.539Z,1001.92
2019-05-29T00:33:00.542Z,1001.97
2019-05-29T00:34:00.565Z,1002.02
2019-05-29T00:35:00.577Z,1001.98
2019-05-29T00:36:00.592Z,1002.03
2019-05-29T00:37:00.614Z,1002.06
2019-05-29T00:38:00.627Z,1002.06
2019-05-29T00:39:00.644Z,1002.06
2019-05-29T00:40:00.658Z,1002.05
2019-05-29T00:41:00.679Z,1002.04
2019-05-29T00:42:00.695Z,1002.06
2019-05-29T00:43:00.710Z,1002.08
2019-05-29T00:44:00.729Z,1002.09
2019-05-29T00:45:00.751Z,1002.07
2019-05-29T00:46:00.764Z,1002.09
2019-05-29T00:47:00.777Z,1002.07
2019-05-29T00:48:00.802Z,1002.15
2019-05-29T00:49:00.809Z,1002.15
2019-05-29T00:50:00.825Z,1002.16
2019-05-29T00:51:00.842Z,1002.22
2019-05-29T00:52:00.867Z,1002.23
2019-05-29T00:53:00.876Z,1002.26
2019-05-29T00:54:00.909Z,1002.28
2019-05-29T00:55:00.912Z,1002.25
2019-05-29T00:56:00.940Z,1002.26
2019-05-29T00:57:00.941Z,1002.27
2019-05-29T00:58:00.962Z,1002.27
2019-05-29T00:59:00.979Z,1002.28
2019-05-29T01:00:00.999Z,1002.30
2019-05-29T01:01:01.014Z,1002.28
2019-05-29T01:02:01.042Z,1002.28
2019-05-29T01:03:01.065Z,1002.26
2019-05-29T01:04:01.224Z,1002.34
2019-05-29T01:05:01.112Z,1002.33
2019-05-29T01:06:01.124Z,1002.37
2019-05-29T01:07:01.132Z,1002.39
2019-05-29T01:08:01.162Z,1002.38
2019-05-29T01:09:01.155Z,1002.42
2019-05-29T01:10:01.165Z,1002.44
2019-05-29T01:11:01.185Z,1002.45
2019-05-29T01:12:01.193Z,1002.48
2019-05-29T01:13:01.209Z,1002.43
2019-05-29T01:14:01.229Z,1002.44
2019-05-29T01:15:01.256Z,1002.46
2019-05-29T01:16:01.256Z,1002.46
2019-05-29T01:17:01.382Z,1002.47
2019-05-29T01:18:01.306Z,1002.51
2019-05-29T01:19:01.313Z,1002.50
2019-05-29T01:20:01.331Z,1002.56
2019-05-29T01:21:01.344Z,1002.57
2019-05-29T01:22:01.373Z,1002.54
2019-05-29T01:23:01.378Z,1002.52
2019-05-29T01:24:01.391Z,1002.57
2019-05-29T01:25:01.413Z,1002.57
2019-05-29T01:26:01.422Z,1002.59
2019-05-29T01:27:01.457Z,1002.60
2019-05-29T01:28:01.458Z,1002.62
2019-05-29T01:29:01.471Z,1002.64
2019-05-29T01:30:01.493Z,1002.64
2019-05-29T01:31:01.506Z,1002.65
2019-05-29T01:32:01.522Z,1002.70
2019-05-29T01:33:01.545Z,1002.67
2019-05-29T01:34:01.556Z,1002.67
2019-05-29T01:35:01.571Z,1002.72
2019-05-29T01:36:01.589Z,1002.76
2019-05-29T01:37:01.610Z,1002.73
2019-05-29T01:38:01.619Z,1002.76
2019-05-29T01:39:01.652Z,1002.77
2019-05-29T01:40:16.585Z,1002.80
2019-05-29T01:41:01.676Z,1002.77
2019-05-29T01:42:01.693Z,1002.80
2019-05-29T01:43:01.706Z,1002.78
2019-05-29T01:44:01.721Z,1002.77
2019-05-29T01:45:07.575Z,1002.79
2019-05-29T01:46:01.751Z,1002.78
2019-05-29T01:47:01.765Z,1002.81
2019-05-29T01:48:01.785Z,1002.84
2019-05-29T01:49:01.799Z,1002.85
2019-05-29T01:50:01.825Z,1002.85
2019-05-29T01:51:01.861Z,1002.84
2019-05-29T01:52:01.849Z,1002.88
2019-05-29T01:53:01.870Z,1002.85
2019-05-29T01:54:01.886Z,1002.84
2019-05-29T01:55:01.901Z,1002.86
2019-05-29T01:56:01.914Z,1002.83
2019-05-29T01:57:01.936Z,1002.85
2019-05-29T01:58:01.949Z,1002.86
2019-05-29T01:59:01.970Z,1002.85
2019-05-29T02:00:01.984Z,1002.82
2019-05-29T02:01:01.999Z,1002.84
2019-05-29T02:02:02.010Z,1002.85
2019-05-29T02:03:02.040Z,1002.82
2019-05-29T02:04:02.050Z,1002.82
2019-05-29T02:05:02.092Z,1002.86
2019-05-29T02:06:02.079Z,1002.82
2019-05-29T02:07:02.095Z,1002.84
2019-05-29T02:08:02.113Z,1002.84
2019-05-29T02:09:02.138Z,1002.86
2019-05-29T02:10:02.143Z,1002.84
2019-05-29T02:11:02.156Z,1002.84
2019-05-29T02:12:02.183Z,1002.86
2019-05-29T02:13:02.195Z,1002.84
2019-05-29T02:14:02.211Z,1002.82
2019-05-29T02:15:02.232Z,1002.86
2019-05-29T02:16:02.239Z,1002.84
2019-05-29T02:17:02.259Z,1002.87
2019-05-29T02:18:02.311Z,1002.89
2019-05-29T02:19:02.318Z,1002.91
2019-05-29T02:20:02.322Z,1002.92
2019-05-29T02:21:02.323Z,1002.91
2019-05-29T02:22:02.342Z,1002.92
2019-05-29T02:23:02.480Z,1002.93
2019-05-29T02:24:02.379Z,1002.94
2019-05-29T02:25:02.383Z,1003.00
2019-05-29T02:26:02.411Z,1002.96
2019-05-29T02:27:02.421Z,1003.04
2019-05-29T02:28:02.435Z,1003.06
2019-05-29T02:29:02.446Z,1003.07
2019-05-29T02:30:02.472Z,1003.10
2019-05-29T02:31:02.487Z,1003.15
2019-05-29T02:32:02.499Z,1003.16
2019-05-29T02:33:02.524Z,1003.15
2019-05-29T02:34:06.491Z,1003.17
2019-05-29T02:35:02.551Z,1003.14
2019-05-29T02:36:02.559Z,1003.19
2019-05-29T02:37:02.580Z,1003.24
2019-05-29T02:38:02.600Z,1003.26
2019-05-29T02:39:02.613Z,1003.22
2019-05-29T02:40:02.639Z,1003.26
2019-05-29T02:41:02.645Z,1003.28
2019-05-29T02:42:02.669Z,1003.26
2019-05-29T02:43:02.677Z,1003.25
2019-05-29T02:44:02.807Z,1003.27
2019-05-29T02:45:02.716Z,1003.28
2019-05-29T02:46:02.719Z,1003.28
2019-05-29T02:47:02.743Z,1003.31
2019-05-29T02:48:02.759Z,1003.31
2019-05-29T02:49:02.781Z,1003.34
2019-05-29T02:50:02.785Z,1003.36
2019-05-29T02:51:02.821Z,1003.38
2019-05-29T02:52:02.844Z,1003.36
2019-05-29T02:53:02.853Z,1003.39
2019-05-29T02:54:02.869Z,1003.37
2019-05-29T02:55:02.882Z,1003.43
2019-05-29T02:56:02.916Z,1003.43
2019-05-29T02:57:02.907Z,1003.47
2019-05-29T02:58:02.931Z,1003.49
2019-05-29T02:59:02.934Z,1003.49
2019-05-29T03:00:02.947Z,1003.53
2019-05-29T03:01:02.958Z,1003.50
2019-05-29T03:02:02.982Z,1003.54
2019-05-29T03:03:02.997Z,1003.58
2019-05-29T03:04:03.144Z,1003.55
2019-05-29T03:05:03.042Z,1003.59
2019-05-29T03:06:03.084Z,1003.58
2019-05-29T03:07:03.067Z,1003.56
2019-05-29T03:08:03.070Z,1003.60
2019-05-29T03:09:03.089Z,1003.61
2019-05-29T03:10:03.182Z,1003.63
2019-05-29T03:11:03.124Z,1003.64
2019-05-29T03:12:03.140Z,1003.67
2019-05-29T03:13:03.159Z,1003.70
2019-05-29T03:14:03.174Z,1003.67
2019-05-29T03:15:03.188Z,1003.72
2019-05-29T03:16:11.430Z,1003.75
2019-05-29T03:17:03.223Z,1003.74
2019-05-29T03:18:03.229Z,1003.75
2019-05-29T03:19:03.245Z,1003.79
2019-05-29T03:20:03.263Z,1003.79
2019-05-29T03:21:03.292Z,1003.78
2019-05-29T03:22:03.292Z,1003.79
2019-05-29T03:23:03.315Z,1003.85
2019-05-29T03:24:03.342Z,1003.82
2019-05-29T03:25:03.348Z,1003.89
2019-05-29T03:26:03.360Z,1003.84
2019-05-29T03:27:03.383Z,1003.85
2019-05-29T03:28:03.386Z,1003.87
2019-05-29T03:29:03.409Z,1003.90
2019-05-29T03:30:03.415Z,1003.93
2019-05-29T03:31:03.457Z,1003.94
2019-05-29T03:32:03.452Z,1003.95
2019-05-29T03:33:03.471Z,1003.97
2019-05-29T03:34:03.482Z,1003.99
2019-05-29T03:35:03.498Z,1003.99
2019-05-29T03:36:03.515Z,1003.94
2019-05-29T03:37:03.535Z,1004.01
2019-05-29T03:38:03.548Z,1004.01
2019-05-29T03:39:03.559Z,1004.02
2019-05-29T03:40:03.577Z,1004.10
2019-05-29T03:41:03.594Z,1004.09
2019-05-29T03:42:03.615Z,1004.14
2019-05-29T03:43:03.629Z,1004.15
2019-05-29T03:44:03.653Z,1004.17
2019-05-29T03:45:03.661Z,1004.20
2019-05-29T03:46:03.666Z,1004.19
2019-05-29T03:47:03.691Z,1004.21
2019-05-29T03:48:03.701Z,1004.19
2019-05-29T03:49:03.718Z,1004.21
2019-05-29T03:50:03.732Z,1004.23
2019-05-29T03:51:03.762Z,1004.23
2019-05-29T03:52:03.761Z,1004.21
2019-05-29T03:53:03.792Z,1004.28
2019-05-29T03:54:03.793Z,1004.25
2019-05-29T03:55:03.809Z,1004.24
2019-05-29T03:56:03.824Z,1004.28
2019-05-29T03:57:03.844Z,1004.32
2019-05-29T03:58:03.854Z,1004.32
2019-05-29T03:59:03.876Z,1004.37
2019-05-29T04:00:03.889Z,1004.36
2019-05-29T04:01:03.905Z,1004.42
2019-05-29T04:02:03.918Z,1004.43
2019-05-29T04:03:03.935Z,1004.43
2019-05-29T04:04:03.948Z,1004.43
2019-05-29T04:05:03.969Z,1004.45
2019-05-29T04:06:03.984Z,1004.49
2019-05-29T04:07:03.997Z,1004.48
2019-05-29T04:08:04.014Z,1004.48
2019-05-29T04:09:04.028Z,1004.51
2019-05-29T04:10:04.046Z,1004.53
2019-05-29T04:11:04.068Z,1004.57
2019-05-29T04:12:04.074Z,1004.58
2019-05-29T04:13:04.090Z,1004.58
2019-05-29T04:14:04.121Z,1004.65
2019-05-29T04:15:04.121Z,1004.67
2019-05-29T04:16:04.142Z,1004.63
2019-05-29T04:17:04.170Z,1004.66
2019-05-29T04:18:04.169Z,1004.69
2019-05-29T04:19:04.189Z,1004.69
2019-05-29T04:20:04.202Z,1004.73
2019-05-29T04:21:04.221Z,1004.74
2019-05-29T04:22:04.231Z,1004.76
2019-05-29T04:23:04.249Z,1004.78
2019-05-29T04:24:04.261Z,1004.79
2019-05-29T04:25:04.276Z,1004.83
2019-05-29T04:26:04.296Z,1004.83
2019-05-29T04:27:04.308Z,1004.83
2019-05-29T04:28:04.323Z,1004.84
2019-05-29T04:29:04.348Z,1004.88
2019-05-29T04:30:04.357Z,1004.84
2019-05-29T04:31:04.578Z,1004.85
2019-05-29T04:32:04.406Z,1004.83
2019-05-29T04:33:04.406Z,1004.88
2019-05-29T04:34:04.420Z,1004.90
2019-05-29T04:35:04.434Z,1004.93
2019-05-29T04:36:04.448Z,1004.96
2019-05-29T04:37:07.283Z,1004.97
2019-05-29T04:38:04.554Z,1005.00
2019-05-29T04:39:04.503Z,1005.02
2019-05-29T04:40:04.514Z,1005.09
2019-05-29T04:41:04.528Z,1005.07
2019-05-29T04:42:04.541Z,1005.11
2019-05-29T04:43:04.565Z,1005.12
2019-05-29T04:44:04.576Z,1005.14
2019-05-29T04:45:04.591Z,1005.14
2019-05-29T04:46:04.606Z,1005.16
2019-05-29T04:47:11.054Z,1005.14
2019-05-29T04:48:04.638Z,1005.13
2019-05-29T04:49:04.656Z,1005.14
2019-05-29T04:50:04.667Z,1005.20
2019-05-29T04:51:04.684Z,1005.45
2019-05-29T04:52:04.698Z,1005.81
2019-05-29T04:53:04.719Z,1005.99
2019-05-29T04:54:04.731Z,1006.03
2019-05-29T04:55:04.746Z,1006.11
2019-05-29T04:56:04.768Z,1006.15
2019-05-29T04:57:04.784Z,1006.22
2019-05-29T04:58:04.801Z,1006.24
2019-05-29T04:59:04.821Z,1006.21
2019-05-29T05:00:04.830Z,1006.25
2019-05-29T05:01:04.849Z,1006.26
2019-05-29T05:02:04.870Z,1006.31
2019-05-29T05:03:04.887Z,1006.36
2019-05-29T05:04:04.910Z,1006.42
2019-05-29T05:05:04.927Z,1006.41
2019-05-29T05:06:04.945Z,1006.42
2019-05-29T05:07:04.974Z,1006.38
2019-05-29T05:08:04.988Z,1006.45
2019-05-29T05:09:05.012Z,1006.46
2019-05-29T05:10:05.026Z,1006.46
2019-05-29T05:11:05.051Z,1006.48
2019-05-29T05:12:05.067Z,1006.53
2019-05-29T05:13:05.096Z,1006.51
2019-05-29T05:14:05.128Z,1006.59
2019-05-29T05:15:05.132Z,1006.59
2019-05-29T05:16:05.150Z,1006.58
2019-05-29T05:17:05.173Z,1006.65
2019-05-29T05:18:05.195Z,1006.67
2019-05-29T05:19:05.216Z,1006.70
2019-05-29T05:20:05.240Z,1006.71
2019-05-29T05:21:05.269Z,1006.72
2019-05-29T05:22:05.292Z,1006.79
2019-05-29T05:23:05.306Z,1006.82
2019-05-29T05:24:05.329Z,1006.82
2019-05-29T05:25:05.352Z,1006.88
2019-05-29T05:26:05.375Z,1006.90
2019-05-29T05:27:05.400Z,1006.92
2019-05-29T05:28:05.430Z,1006.97
2019-05-29T05:29:05.444Z,1007.01
2019-05-29T05:30:08.753Z,1007.06
2019-05-29T05:31:05.488Z,1007.14
2019-05-29T05:32:05.510Z,1007.16
2019-05-29T05:33:05.539Z,1007.26
2019-05-29T05:34:05.573Z,1007.32
2019-05-29T05:35:05.581Z,1007.38
2019-05-29T05:36:05.608Z,1007.38
2019-05-29T05:37:05.628Z,1007.47
2019-05-29T05:38:05.656Z,1007.53
2019-05-29T05:39:05.674Z,1007.61
2019-05-29T05:40:05.698Z,1007.67
2019-05-29T05:41:05.724Z,1007.76
2019-05-29T05:42:05.747Z,1007.81
2019-05-29T05:43:05.769Z,1007.87
2019-05-29T05:44:05.792Z,1007.94
2019-05-29T05:45:05.819Z,1008.05
2019-05-29T05:46:05.841Z,1008.07
2019-05-29T05:47:05.871Z,1008.12
2019-05-29T05:48:05.888Z,1008.12
2019-05-29T05:49:05.910Z,1008.17
2019-05-29T05:50:05.936Z,1008.22
2019-05-29T05:51:05.960Z,1008.23
2019-05-29T05:52:05.984Z,1008.37
2019-05-29T05:53:06.018Z,1008.38
2019-05-29T05:54:06.032Z,1008.49
2019-05-29T05:55:06.056Z,1008.60
2019-05-29T05:56:06.078Z,1008.61
2019-05-29T05:57:06.109Z,1008.66
2019-05-29T05:58:06.128Z,1008.76
2019-05-29T05:59:06.276Z,1008.86
2019-05-29T06:00:06.173Z,1008.91
2019-05-29T06:01:06.200Z,1008.87
2019-05-29T06:02:06.224Z,1008.95
2019-05-29T06:03:06.255Z,1009.13
2019-05-29T06:04:06.274Z,1009.13
2019-05-29T06:05:06.295Z,1009.09
2019-05-29T06:06:06.322Z,1009.19
2019-05-29T06:07:06.344Z,1009.26
2019-05-29T06:08:06.367Z,1009.31
2019-05-29T06:09:06.394Z,1009.39
2019-05-29T06:10:06.420Z,1009.33
2019-05-29T06:11:06.441Z,1009.18
2019-05-29T06:12:06.465Z,1009.04
2019-05-29T06:13:06.493Z,1009.08
2019-05-29T06:14:06.514Z,1009.31
2019-05-29T06:15:06.539Z,1009.53
2019-05-29T06:16:06.561Z,1009.52
2019-05-29T06:17:06.592Z,1009.49
2019-05-29T06:18:20.395Z,1009.58
2019-05-29T06:19:06.638Z,1009.57
2019-05-29T06:20:06.663Z,1009.45
2019-05-29T06:21:06.685Z,1009.47
2019-05-29T06:22:06.710Z,1009.57
2019-05-29T06:23:06.738Z,1009.54
2019-05-29T06:24:06.803Z,1009.55
2019-05-29T06:25:06.908Z,1009.58
2019-05-29T06:26:06.808Z,1009.60
2019-05-29T06:27:06.835Z,1009.54
2019-05-29T06:28:06.851Z,1009.44
2019-05-29T06:29:06.919Z,1009.37
2019-05-29T06:30:07.054Z,1009.32
2019-05-29T06:31:06.940Z,1009.23
2019-05-29T06:32:06.989Z,1009.28
2019-05-29T06:33:06.995Z,1009.36
2019-05-29T06:34:07.012Z,1009.50
2019-05-29T06:35:07.036Z,1009.49
2019-05-29T06:36:07.052Z,1009.27
2019-05-29T06:37:07.094Z,1009.08
2019-05-29T06:38:07.102Z,1009.03
2019-05-29T06:39:07.132Z,1009.06
2019-05-29T06:40:07.150Z,1009.40
2019-05-29T06:41:07.184Z,1007.98
2019-05-29T06:42:07.189Z,1007.18
2019-05-29T06:43:07.216Z,1007.33
2019-05-29T06:44:07.236Z,1009.37
2019-05-29T06:45:07.503Z,1009.22
2019-05-29T06:46:07.298Z,1009.18
2019-05-29T06:47:07.313Z,1009.10
2019-05-29T06:48:07.327Z,1008.14
2019-05-29T06:49:07.356Z,1007.11
2019-05-29T06:50:07.373Z,1008.89
2019-05-29T06:51:07.402Z,1008.05
2019-05-29T06:52:09.286Z,1006.93
2019-05-29T06:53:07.450Z,1009.03
2019-05-29T06:54:07.472Z,1008.81
2019-05-29T06:55:07.492Z,1007.40
2019-05-29T06:56:07.535Z,1008.50
2019-05-29T06:57:07.531Z,1008.89
2019-05-29T06:58:07.558Z,1008.89
2019-05-29T06:59:07.579Z,1008.77
2019-05-29T07:00:07.613Z,1007.25
2019-05-29T07:01:07.632Z,1008.00
2019-05-29T07:02:07.646Z,1008.58
2019-05-29T07:03:07.668Z,1007.58
2019-05-29T07:04:11.874Z,1007.81
2019-05-29T07:05:07.719Z,1007.27
2019-05-29T07:06:07.758Z,1008.31
2019-05-29T07:07:07.757Z,1008.73
2019-05-29T07:08:19.230Z,1008.74
2019-05-29T07:09:07.803Z,1008.74
2019-05-29T07:10:07.824Z,1008.67
2019-05-29T07:11:07.844Z,1008.64
2019-05-29T07:12:07.869Z,1008.74
2019-05-29T07:13:07.890Z,1008.71
2019-05-29T07:14:07.917Z,1008.67
2019-05-29T07:15:07.938Z,1008.74
2019-05-29T07:16:07.955Z,1008.86
2019-05-29T07:17:07.979Z,1008.76
2019-05-29T07:18:08.004Z,1007.73
2019-05-29T07:19:25.226Z,1007.00
2019-05-29T07:20:08.055Z,1006.96
2019-05-29T07:21:08.070Z,1007.45
2019-05-29T07:22:08.090Z,1007.99
2019-05-29T07:23:08.112Z,1007.06
2019-05-29T07:24:08.139Z,1007.45
2019-05-29T07:25:08.161Z,1008.30
2019-05-29T07:26:08.182Z,1008.28
2019-05-29T07:27:13.184Z,1007.45
2019-05-29T07:28:08.221Z,1007.99
2019-05-29T07:29:08.745Z,1008.25
2019-05-29T07:30:08.271Z,1008.37
2019-05-29T07:31:08.286Z,1008.51
2019-05-29T07:32:08.306Z,1008.63
2019-05-29T07:33:08.342Z,1007.15
2019-05-29T07:34:08.356Z,1008.57
2019-05-29T07:35:08.379Z,1008.65
2019-05-29T07:36:08.394Z,1008.60
2019-05-29T07:37:08.418Z,1008.68
2019-05-29T07:38:08.437Z,1008.71
2019-05-29T07:39:08.462Z,1007.69
2019-05-29T07:40:08.482Z,1008.69
2019-05-29T07:41:08.521Z,1008.68
2019-05-29T07:42:08.530Z,1008.83
2019-05-29T07:43:08.560Z,1008.38
2019-05-29T07:44:08.569Z,1008.87
2019-05-29T07:45:08.593Z,1008.75
2019-05-29T07:46:08.615Z,1008.77
2019-05-29T07:47:09.963Z,1008.98
2019-05-29T07:48:08.666Z,1009.13
2019-05-29T07:49:08.684Z,1009.14
2019-05-29T07:50:08.701Z,1009.15
2019-05-29T07:51:08.724Z,1008.97
2019-05-29T07:52:08.747Z,1009.00
2019-05-29T07:53:08.775Z,1009.11
2019-05-29T07:54:08.794Z,1008.34
2019-05-29T07:55:08.878Z,1007.90
2019-05-29T07:56:21.641Z,1007.63
2019-05-29T07:57:08.859Z,1007.60
2019-05-29T07:58:08.883Z,1007.61
2019-05-29T07:59:08.913Z,1007.58
2019-05-29T08:00:08.930Z,1007.53
2019-05-29T08:01:13.374Z,1007.51
2019-05-29T08:02:08.977Z,1007.60
2019-05-29T08:03:09.004Z,1007.65
2019-05-29T08:04:09.021Z,1007.68
2019-05-29T08:05:09.047Z,1007.67
2019-05-29T08:06:09.097Z,1007.68
2019-05-29T08:07:09.096Z,1007.52
2019-05-29T08:08:09.120Z,1007.65
2019-05-29T08:09:09.137Z,1007.59
2019-05-29T08:10:09.164Z,1007.68
2019-05-29T08:11:09.187Z,1007.55
2019-05-29T08:12:09.210Z,1007.54
2019-05-29T08:13:09.232Z,1007.57
2019-05-29T08:14:09.261Z,1007.49
2019-05-29T08:15:09.306Z,1007.60
2019-05-29T08:16:09.302Z,1007.50
2019-05-29T08:17:09.332Z,1007.43
2019-05-29T08:18:09.347Z,1007.48
2019-05-29T08:19:09.386Z,1007.49
2019-05-29T08:20:09.394Z,1007.52
2019-05-29T08:21:09.411Z,1007.49
2019-05-29T08:22:09.432Z,1007.60
2019-05-29T08:23:09.540Z,1007.62
2019-05-29T08:24:09.479Z,1007.64
2019-05-29T08:25:09.493Z,1007.69
2019-05-29T08:26:09.515Z,1007.63
2019-05-29T08:27:09.538Z,1007.60
2019-05-29T08:28:09.558Z,1007.62
2019-05-29T08:29:09.575Z,1007.61
2019-05-29T08:30:09.595Z,1007.62
2019-05-29T08:31:09.641Z,1007.57
2019-05-29T08:32:09.638Z,1007.52
2019-05-29T08:33:09.658Z,1007.56
2019-05-29T08:34:09.684Z,1007.57
2019-05-29T08:35:09.705Z,1007.64
2019-05-29T08:36:09.723Z,1007.63
2019-05-29T08:37:09.740Z,1007.66
2019-05-29T08:38:09.766Z,1007.64
2019-05-29T08:39:09.787Z,1007.61
2019-05-29T08:40:09.801Z,1007.54
2019-05-29T08:41:09.839Z,1007.56
2019-05-29T08:42:22.777Z,1007.52
2019-05-29T08:43:09.870Z,1007.56
2019-05-29T08:44:09.890Z,1007.55
2019-05-29T08:45:09.935Z,1007.58
2019-05-29T08:46:09.927Z,1007.61
2019-05-29T08:47:11.064Z,1007.63
2019-05-29T08:48:09.966Z,1007.52
2019-05-29T08:49:09.984Z,1007.41
2019-05-29T08:50:18.136Z,1007.45
2019-05-29T08:51:10.022Z,1007.46
2019-05-29T08:52:12.358Z,1007.48
2019-05-29T08:53:10.063Z,1007.55
2019-05-29T08:54:23.552Z,1007.64
2019-05-29T08:55:10.103Z,1007.58
2019-05-29T08:56:10.135Z,1007.55
2019-05-29T08:57:10.160Z,1007.49
2019-05-29T08:58:10.168Z,1007.48
2019-05-29T08:59:10.179Z,1007.43
2019-05-29T09:00:10.200Z,1007.45
2019-05-29T09:01:10.222Z,1007.43
2019-05-29T09:02:10.248Z,1007.51
2019-05-29T09:03:10.269Z,1007.52
2019-05-29T09:04:10.279Z,1007.50
2019-05-29T09:05:10.297Z,1007.55
2019-05-29T09:06:13.487Z,1007.57
2019-05-29T09:07:10.334Z,1007.56
2019-05-29T09:08:10.359Z,1007.58
2019-05-29T09:09:10.371Z,1007.51
2019-05-29T09:10:10.399Z,1007.52
2019-05-29T09:11:10.417Z,1007.49
2019-05-29T09:12:10.427Z,1007.52
2019-05-29T09:13:10.450Z,1007.55
2019-05-29T09:14:10.470Z,1007.52
2019-05-29T09:15:10.768Z,1007.48
2019-05-29T09:16:10.515Z,1007.55
2019-05-29T09:17:11.906Z,1007.55
2019-05-29T09:18:10.544Z,1007.56
2019-05-29T09:19:10.573Z,1007.60
2019-05-29T09:20:26.204Z,1007.58
2019-05-29T09:21:10.606Z,1007.56
2019-05-29T09:22:10.625Z,1007.51
2019-05-29T09:23:10.645Z,1007.57
2019-05-29T09:24:10.712Z,1007.58
2019-05-29T09:25:10.683Z,1007.64
2019-05-29T09:26:15.878Z,1007.62
2019-05-29T09:27:10.721Z,1007.62
2019-05-29T09:28:10.737Z,1007.65
2019-05-29T09:29:10.763Z,1007.67
2019-05-29T09:30:10.774Z,1007.59
2019-05-29T09:31:10.799Z,1007.60
2019-05-29T09:32:10.814Z,1007.61
2019-05-29T09:33:10.836Z,1007.62
2019-05-29T09:34:10.852Z,1007.64
2019-05-29T09:35:10.876Z,1007.64
2019-05-29T09:36:10.894Z,1007.66
2019-05-29T09:37:11.017Z,1007.65
2019-05-29T09:38:10.930Z,1007.68
2019-05-29T09:39:10.951Z,1007.72
2019-05-29T09:40:10.969Z,1007.69
2019-05-29T09:41:10.987Z,1007.65
2019-05-29T09:42:11.008Z,1007.64
2019-05-29T09:43:11.025Z,1007.69
2019-05-29T09:44:26.791Z,1007.65
2019-05-29T09:45:11.071Z,1007.78
2019-05-29T09:46:11.944Z,1007.77
2019-05-29T09:47:11.107Z,1007.80
2019-05-29T09:48:11.171Z,1007.80
2019-05-29T09:49:11.146Z,1007.85
2019-05-29T09:50:11.171Z,1007.87
2019-05-29T09:51:21.172Z,1007.91
2019-05-29T09:52:11.204Z,1007.91
2019-05-29T09:53:11.242Z,1007.88
2019-05-29T09:54:11.295Z,1007.80
2019-05-29T09:55:11.266Z,1007.80
2019-05-29T09:56:11.283Z,1007.88
2019-05-29T09:57:14.610Z,1007.90
2019-05-29T09:58:11.328Z,1007.84
2019-05-29T09:59:11.342Z,1007.82
2019-05-29T10:00:11.362Z,1007.87
2019-05-29T10:01:22.915Z,1007.90
2019-05-29T10:02:11.419Z,1007.88
2019-05-29T10:03:11.424Z,1007.91
2019-05-29T10:04:11.440Z,1008.05
2019-05-29T10:05:11.474Z,1007.96
2019-05-29T10:06:11.479Z,1007.95
2019-05-29T10:07:11.501Z,1007.91
2019-05-29T10:08:11.534Z,1007.97
2019-05-29T10:09:11.540Z,1007.92
2019-05-29T10:10:11.574Z,1007.92
2019-05-29T10:11:11.614Z,1007.93
2019-05-29T10:12:11.598Z,1007.98
2019-05-29T10:13:11.623Z,1007.93
2019-05-29T10:14:11.639Z,1007.92
2019-05-29T10:15:11.660Z,1007.92
2019-05-29T10:16:11.679Z,1007.94
2019-05-29T10:17:12.895Z,1007.89
2019-05-29T10:18:30.728Z,1007.94
2019-05-29T10:19:11.739Z,1007.92
2019-05-29T10:20:11.757Z,1008.00
2019-05-29T10:21:11.775Z,1007.98
2019-05-29T10:22:11.798Z,1007.99
2019-05-29T10:23:11.813Z,1007.93
2019-05-29T10:24:11.833Z,1008.00
2019-05-29T10:25:11.861Z,1008.01
2019-05-29T10:26:11.875Z,1008.01
2019-05-29T10:27:11.891Z,1007.97
2019-05-29T10:28:11.930Z,1007.97
2019-05-29T10:29:11.958Z,1007.98
2019-05-29T10:30:11.965Z,1008.02
2019-05-29T10:31:11.972Z,1007.99
2019-05-29T10:32:11.990Z,1007.99
2019-05-29T10:33:12.009Z,1008.05
2019-05-29T10:34:12.029Z,1008.01
2019-05-29T10:35:12.053Z,1008.01
2019-05-29T10:36:12.088Z,1008.02
2019-05-29T10:37:12.104Z,1007.93
2019-05-29T10:38:12.112Z,1007.98
2019-05-29T10:39:13.072Z,1007.96
2019-05-29T10:40:12.154Z,1007.96
2019-05-29T10:41:12.174Z,1008.01
2019-05-29T10:42:12.191Z,1007.95
2019-05-29T10:43:12.212Z,1008.04
2019-05-29T10:44:13.081Z,1008.05
2019-05-29T10:45:12.251Z,1008.06
2019-05-29T10:46:12.275Z,1008.01
2019-05-29T10:47:12.292Z,1007.95
2019-05-29T10:48:12.314Z,1007.93
2019-05-29T10:49:12.349Z,1007.95
2019-05-29T10:50:12.386Z,1007.92
2019-05-29T10:51:12.371Z,1007.87
2019-05-29T10:52:16.830Z,1007.91
2019-05-29T10:53:12.414Z,1007.91
2019-05-29T10:54:12.432Z,1007.93
2019-05-29T10:55:12.453Z,1007.99
2019-05-29T10:56:12.473Z,1008.01
2019-05-29T10:57:12.499Z,1007.98
2019-05-29T10:58:12.516Z,1007.96
2019-05-29T10:59:12.537Z,1008.05
2019-05-29T11:00:12.554Z,1008.00
2019-05-29T11:01:12.573Z,1007.99
2019-05-29T11:02:12.602Z,1007.98
2019-05-29T11:03:12.621Z,1007.96
2019-05-29T11:04:12.637Z,1007.92
2019-05-29T11:05:12.654Z,1007.88
2019-05-29T11:06:12.683Z,1007.91
2019-05-29T11:07:12.693Z,1007.91
2019-05-29T11:08:12.837Z,1008.03
2019-05-29T11:09:12.743Z,1008.06
2019-05-29T11:10:13.548Z,1008.06
2019-05-29T11:11:12.796Z,1008.03
2019-05-29T11:12:12.810Z,1008.05
2019-05-29T11:13:12.966Z,1007.99
2019-05-29T11:14:12.839Z,1007.93
2019-05-29T11:15:21.409Z,1007.96
2019-05-29T11:16:12.881Z,1007.95
2019-05-29T11:17:12.894Z,1007.94
2019-05-29T11:18:12.928Z,1007.93
2019-05-29T11:19:12.956Z,1007.93
2019-05-29T11:20:12.965Z,1008.02
2019-05-29T11:21:12.983Z,1007.97
2019-05-29T11:22:25.902Z,1007.96
2019-05-29T11:23:13.031Z,1007.91
2019-05-29T11:24:13.042Z,1007.84
2019-05-29T11:25:23.378Z,1007.84
2019-05-29T11:26:13.079Z,1007.86
2019-05-29T11:27:13.103Z,1007.92
2019-05-29T11:28:13.117Z,1007.90
2019-05-29T11:29:13.142Z,1007.90
2019-05-29T11:30:13.161Z,1007.88
2019-05-29T11:31:13.183Z,1007.89
2019-05-29T11:32:13.198Z,1007.95
2019-05-29T11:33:13.227Z,1007.89
2019-05-29T11:34:13.260Z,1007.96
2019-05-29T11:35:13.260Z,1007.89
2019-05-29T11:36:13.758Z,1007.94
2019-05-29T11:37:13.313Z,1007.85
2019-05-29T11:38:13.360Z,1007.91
2019-05-29T11:39:13.351Z,1007.93
2019-05-29T11:40:13.360Z,1007.90
2019-05-29T11:41:26.069Z,1007.90
2019-05-29T11:42:26.464Z,1007.90
2019-05-29T11:43:13.425Z,1007.87
2019-05-29T11:44:13.447Z,1007.92
2019-05-29T11:45:13.459Z,1007.90
2019-05-29T11:46:13.486Z,1007.89
2019-05-29T11:47:13.508Z,1007.88
2019-05-29T11:48:13.520Z,1007.93
2019-05-29T11:49:13.552Z,1007.91
2019-05-29T11:50:19.718Z,1007.89
2019-05-29T11:51:13.583Z,1007.98
2019-05-29T11:52:24.335Z,1007.87
2019-05-29T11:53:13.632Z,1007.85
2019-05-29T11:54:13.642Z,1007.81
2019-05-29T11:55:13.665Z,1007.83
2019-05-29T11:56:13.684Z,1007.80
2019-05-29T11:57:13.706Z,1007.81
2019-05-29T11:58:29.973Z,1007.76
2019-05-29T11:59:13.745Z,1007.88
2019-05-29T12:00:19.870Z,1007.86
2019-05-29T12:01:13.786Z,1007.76
2019-05-29T12:02:13.825Z,1007.76
2019-05-29T12:03:13.828Z,1007.74
2019-05-29T12:04:25.902Z,1007.82
2019-05-29T12:05:13.870Z,1007.85
2019-05-29T12:06:13.962Z,1007.72